Terminal Aerodrome Forecast
Issued by NWS

Home | Current Version | Previous Version | Text Only | Print | Product List | Glossary On
Versions: 1 2 3 4 5 6 7 8 9 10 11 12 13 14 15 16 17 18 19 20 21 22 23 24 25 26
000
FTUS45 KTWC 061740
TAFOLS
TAF
KOLS 061740Z 0618/0718 VRB04KT P6SM SCT090
     FM061900 27009KT P6SM VCSH SCT090 BKN140
     FM070300 24006KT P6SM SCT090 BKN140
     FM070800 VRB03KT P6SM FEW090 SCT140=

USA.gov is the U.S. government's official web portal to all federal, state and local government web resources and services.